createdAt,value
2022-10-13T00:00:21.721Z,99091.91
2022-10-13T00:02:48.820Z,99095.34
2022-10-13T00:05:15.908Z,99089.31
2022-10-13T00:07:42.982Z,99092.84
2022-10-13T00:10:10.114Z,99088.47
2022-10-13T00:12:37.222Z,99090.25
2022-10-13T00:15:04.289Z,99099.72
2022-10-13T00:17:31.384Z,99094.63
2022-10-13T00:19:58.530Z,99092.84
2022-10-13T00:22:25.623Z,99097.22
2022-10-13T00:24:52.731Z,99096.38
2022-10-13T00:27:19.832Z,99088.59
2022-10-13T00:29:46.895Z,99089.50
2022-10-13T00:32:14.005Z,99079.97
2022-10-13T00:34:41.075Z,99083.38
2022-10-13T00:37:08.206Z,99084.28
2022-10-13T00:39:35.324Z,99093.03
2022-10-13T00:42:02.536Z,99098.16
2022-10-13T00:44:29.637Z,99095.63
2022-10-13T00:46:56.971Z,99094.69
2022-10-13T00:49:24.062Z,99093.97
2022-10-13T00:51:51.138Z,99100.00
2022-10-13T00:54:18.212Z,99093.97
2022-10-13T00:56:45.287Z,99094.81
2022-10-13T00:59:12.427Z,99096.59
2022-10-13T01:01:39.516Z,99092.31
2022-10-13T01:04:06.665Z,99093.97
2022-10-13T01:06:33.934Z,99098.34
2022-10-13T01:09:01.036Z,99099.28
2022-10-13T01:11:28.189Z,99107.09
2022-10-13T01:13:55.456Z,99101.91
2022-10-13T01:16:22.576Z,99108.84
2022-10-13T01:18:49.692Z,99096.78
2022-10-13T01:21:16.812Z,99100.19
2022-10-13T01:23:43.916Z,99095.00
2022-10-13T01:26:11.019Z,99098.53
2022-10-13T01:28:38.210Z,99106.34
2022-10-13T01:31:05.331Z,99095.94
2022-10-13T01:33:32.411Z,99092.50
2022-10-13T01:35:59.487Z,99090.75
2022-10-13T01:38:27.423Z,99088.16
2022-10-13T01:40:54.538Z,99087.31
2022-10-13T01:43:21.692Z,99083.88
2022-10-13T01:45:48.783Z,99082.13
2022-10-13T01:48:15.853Z,99070.88
2022-10-13T01:50:42.938Z,99072.66
2022-10-13T01:53:10.019Z,99070.06
2022-10-13T01:55:37.348Z,99070.06
2022-10-13T01:58:04.408Z,99069.19
2022-10-13T02:00:31.571Z,99071.78
2022-10-13T02:02:58.735Z,99068.38
2022-10-13T02:05:25.940Z,99064.94
2022-10-13T02:07:53.327Z,99057.97
2022-10-13T02:10:20.437Z,99061.41
2022-10-13T02:12:47.545Z,99054.53
2022-10-13T02:15:14.606Z,99052.75
2022-10-13T02:17:41.855Z,99043.31
2022-10-13T02:20:08.969Z,99048.50
2022-10-13T02:22:36.078Z,99051.09
2022-10-13T02:25:03.185Z,99052.88
2022-10-13T02:27:30.322Z,99045.06
2022-10-13T02:29:57.429Z,99047.69
2022-10-13T02:32:24.548Z,99045.91
2022-10-13T02:34:51.672Z,99048.50
2022-10-13T02:37:18.878Z,99050.28
2022-10-13T02:39:46.018Z,99039.88
2022-10-13T02:42:13.150Z,99042.47
2022-10-13T02:44:41.161Z,99046.84
2022-10-13T02:47:08.312Z,99045.06
2022-10-13T02:49:35.524Z,99040.81
2022-10-13T02:52:02.650Z,99044.25
2022-10-13T02:54:29.842Z,99040.81
2022-10-13T02:56:56.964Z,99034.75
2022-10-13T02:59:24.112Z,99032.16
2022-10-13T03:01:51.266Z,99032.16
2022-10-13T03:04:18.425Z,99032.16
2022-10-13T03:06:45.535Z,99029.56
2022-10-13T03:09:12.668Z,99032.16
2022-10-13T03:11:40.199Z,99037.38
2022-10-13T03:14:07.320Z,99036.53
2022-10-13T03:16:34.440Z,99030.50
2022-10-13T03:19:01.539Z,99033.94
2022-10-13T03:21:28.669Z,99040.91
2022-10-13T03:23:55.785Z,99041.84
2022-10-13T03:26:23.105Z,99044.34
2022-10-13T03:28:50.553Z,99037.47
2022-10-13T03:31:17.806Z,99041.00
2022-10-13T03:33:44.926Z,99040.06
2022-10-13T03:36:12.244Z,99036.66
2022-10-13T03:38:39.399Z,99035.00
2022-10-13T03:41:06.503Z,99033.22
2022-10-13T03:43:33.630Z,99039.25
2022-10-13T03:46:00.736Z,99037.59
2022-10-13T03:48:27.856Z,99034.16
2022-10-13T03:50:55.704Z,99028.00
2022-10-13T03:53:22.813Z,99027.19
2022-10-13T03:55:50.064Z,99028.97
2022-10-13T03:58:17.163Z,99021.16
2022-10-13T04:00:44.339Z,99027.19
2022-10-13T04:03:11.464Z,99018.56
2022-10-13T04:05:38.592Z,99022.00
2022-10-13T04:08:05.759Z,99022.91
2022-10-13T04:10:32.856Z,99026.34
2022-10-13T04:12:59.967Z,99026.34
2022-10-13T04:15:27.091Z,99021.16
2022-10-13T04:17:54.327Z,99020.41
2022-10-13T04:20:21.489Z,99022.06
2022-10-13T04:22:48.609Z,99020.41
2022-10-13T04:25:15.731Z,99022.00
2022-10-13T04:27:42.942Z,99027.25
2022-10-13T04:30:13.337Z,99025.50
2022-10-13T04:32:40.699Z,99020.41
2022-10-13T04:35:07.821Z,99022.19
2022-10-13T04:37:35.037Z,99021.16
2022-10-13T04:40:02.295Z,99014.28
2022-10-13T04:42:29.427Z,99009.25
2022-10-13T04:44:56.535Z,99003.16
2022-10-13T04:47:23.643Z,98998.78
2022-10-13T04:49:50.772Z,98998.69
2022-10-13T04:52:18.143Z,99006.47
2022-10-13T04:54:45.543Z,98992.75
2022-10-13T04:57:12.669Z,99001.28
2022-10-13T04:59:39.789Z,98999.63
2022-10-13T05:02:07.096Z,98997.00
2022-10-13T05:04:34.216Z,98996.06
2022-10-13T05:07:18.340Z,98996.06
2022-10-13T05:09:45.996Z,98995.34
2022-10-13T05:12:13.140Z,98992.75
2022-10-13T05:14:40.332Z,98991.81
2022-10-13T05:17:07.455Z,98991.06
2022-10-13T05:19:34.667Z,98984.97
2022-10-13T05:22:02.036Z,98994.41
2022-10-13T05:24:36.732Z,98984.97
2022-10-13T05:27:03.900Z,98989.22
2022-10-13T05:29:31.377Z,98991.81
2022-10-13T05:31:58.543Z,98991.06
2022-10-13T05:34:25.677Z,98990.16
2022-10-13T05:36:52.858Z,98997.13
2022-10-13T05:39:19.966Z,98999.63
2022-10-13T05:41:47.126Z,99002.31
2022-10-13T05:44:14.247Z,99002.31
2022-10-13T05:46:41.373Z,98990.25
2022-10-13T05:49:08.502Z,98991.06
2022-10-13T05:51:35.618Z,98997.13
2022-10-13T05:54:02.769Z,99002.31
2022-10-13T05:56:29.967Z,99005.75
2022-10-13T05:58:57.100Z,99002.22
2022-10-13T06:01:24.726Z,98998.03
2022-10-13T06:03:51.968Z,98998.88
2022-10-13T06:06:19.072Z,99006.66
2022-10-13T06:08:46.199Z,99000.63
2022-10-13T06:11:13.336Z,99001.47
2022-10-13T06:13:40.471Z,98998.03
2022-10-13T06:16:07.613Z,99001.47
2022-10-13T06:18:34.725Z,99002.31
2022-10-13T06:21:01.857Z,99006.66
2022-10-13T06:23:29.015Z,99003.97
2022-10-13T06:25:56.252Z,99004.81
2022-10-13T06:28:23.433Z,99007.41
2022-10-13T06:30:56.071Z,99006.66
2022-10-13T06:33:24.050Z,99011.78
2022-10-13T06:35:51.736Z,99016.16
2022-10-13T06:38:18.941Z,99014.47
2022-10-13T06:40:46.175Z,99014.47
2022-10-13T06:43:13.317Z,99019.66
2022-10-13T06:45:40.464Z,99015.31
2022-10-13T06:48:07.791Z,99013.56
2022-10-13T06:50:38.288Z,99011.88
2022-10-13T06:53:07.811Z,99014.47
2022-10-13T06:55:34.991Z,99012.81
2022-10-13T06:58:02.158Z,99004.06
2022-10-13T07:00:29.439Z,99000.63
2022-10-13T07:02:56.631Z,99004.94
2022-10-13T07:05:23.910Z,99005.75
2022-10-13T07:07:51.047Z,99009.19
2022-10-13T07:10:18.219Z,98999.72
2022-10-13T07:12:45.360Z,99003.97
2022-10-13T07:15:12.473Z,98997.13
2022-10-13T07:17:39.616Z,99003.16
2022-10-13T07:20:07.511Z,99001.38
2022-10-13T07:22:34.772Z,99007.31
2022-10-13T07:25:01.888Z,99005.75
2022-10-13T07:27:29.099Z,99003.97
2022-10-13T07:29:56.271Z,99003.88
2022-10-13T07:32:23.444Z,99002.22
2022-10-13T07:34:50.602Z,98998.59
2022-10-13T07:37:18.007Z,99008.75
2022-10-13T07:39:45.413Z,99008.69
2022-10-13T07:42:12.555Z,99011.16
2022-10-13T07:44:39.697Z,99013.78
2022-10-13T07:47:06.832Z,99015.03
2022-10-13T07:49:34.019Z,99006.94
2022-10-13T07:52:01.619Z,99004.25
2022-10-13T07:54:28.769Z,99008.38
2022-10-13T07:56:56.211Z,99016.19
2022-10-13T07:59:23.361Z,99009.13
2022-10-13T08:01:50.540Z,99007.28
2022-10-13T08:04:17.676Z,98998.53
2022-10-13T08:06:44.806Z,99001.97
2022-10-13T08:09:12.473Z,98996.75
2022-10-13T08:11:39.632Z,98994.91
2022-10-13T08:14:06.843Z,98993.97
2022-10-13T08:16:34.017Z,99002.72
2022-10-13T08:19:01.209Z,99011.34
2022-10-13T08:21:53.295Z,99003.41
2022-10-13T08:24:15.584Z,99002.59
2022-10-13T08:26:42.733Z,98999.16
2022-10-13T08:29:21.276Z,98999.03
2022-10-13T08:34:36.988Z,99005.81
2022-10-13T08:37:04.114Z,99005.00
2022-10-13T08:39:31.256Z,99006.34
2022-10-13T08:42:01.421Z,99009.88
2022-10-13T08:47:15.664Z,99002.38
2022-10-13T08:49:42.831Z,98996.16
2022-10-13T08:52:09.955Z,99000.34
2022-10-13T08:54:37.101Z,98999.47
2022-10-13T08:57:06.655Z,98999.38
2022-10-13T08:59:33.855Z,98993.97
2022-10-13T09:02:01.962Z,98991.38
2022-10-13T09:04:29.717Z,98999.47
2022-10-13T09:06:56.880Z,98994.50
2022-10-13T09:09:24.002Z,98992.63
2022-10-13T09:11:51.140Z,99000.09
2022-10-13T09:14:18.301Z,98994.91
2022-10-13T09:16:45.432Z,98994.81
2022-10-13T09:19:12.783Z,98996.34
2022-10-13T09:21:40.132Z,98987.84
2022-10-13T09:24:07.244Z,98978.38
2022-10-13T09:26:34.347Z,98983.56
2022-10-13T09:29:01.503Z,98979.28
2022-10-13T09:31:28.957Z,98970.66
2022-10-13T09:33:56.087Z,98975.16
2022-10-13T09:36:23.211Z,98977.00
2022-10-13T09:38:50.333Z,98965.03
2022-10-13T09:41:17.490Z,98974.59
2022-10-13T09:43:44.645Z,98964.19
2022-10-13T09:46:11.747Z,98972.81
2022-10-13T09:48:38.859Z,98972.13
2022-10-13T09:51:05.966Z,98975.88
2022-10-13T09:53:33.132Z,98974.22
2022-10-13T09:56:00.287Z,98991.56
2022-10-13T09:58:27.542Z,98986.34
2022-10-13T10:00:54.651Z,98978.34
2022-10-13T10:03:22.130Z,98986.91
2022-10-13T10:05:50.751Z,98986.78
2022-10-13T10:08:17.875Z,98985.13
2022-10-13T10:10:44.996Z,98986.78
2022-10-13T10:13:12.569Z,98990.31
2022-10-13T10:15:39.819Z,98981.78
2022-10-13T10:18:07.006Z,98992.41
2022-10-13T10:20:34.111Z,98986.97
2022-10-13T10:23:01.223Z,98974.81
2022-10-13T10:25:30.005Z,98974.81
2022-10-13T10:27:57.183Z,98975.66
2022-10-13T10:30:24.316Z,98963.50
2022-10-13T10:32:51.443Z,98953.09
2022-10-13T10:35:19.116Z,98961.72
2022-10-13T10:37:46.569Z,98970.22
2022-10-13T10:40:13.787Z,98957.22
2022-10-13T10:42:40.902Z,98952.00
2022-10-13T10:45:08.075Z,98950.34
2022-10-13T10:47:35.245Z,98945.97
2022-10-13T10:50:02.423Z,98946.72
2022-10-13T10:52:29.718Z,98948.38
2022-10-13T10:54:56.857Z,98951.09
2022-10-13T10:57:25.306Z,98945.16
2022-10-13T10:59:52.550Z,98941.72
2022-10-13T11:02:19.812Z,98931.75
2022-10-13T11:04:47.067Z,98923.00
2022-10-13T11:07:14.275Z,98914.25
2022-10-13T11:09:41.408Z,98909.88
2022-10-13T11:12:08.580Z,98914.16
2022-10-13T11:14:36.795Z,98908.94
2022-10-13T11:17:03.915Z,98911.44
2022-10-13T11:19:31.053Z,98907.16
2022-10-13T11:21:58.226Z,98908.84
2022-10-13T11:24:25.348Z,98909.78
2022-10-13T11:26:52.636Z,98907.59
2022-10-13T11:29:20.376Z,98910.81
2022-10-13T11:31:47.829Z,98915.94
2022-10-13T11:34:14.967Z,98917.66
2022-10-13T11:36:42.191Z,98908.22
2022-10-13T11:39:09.355Z,98904.78
2022-10-13T11:41:36.464Z,98899.56
2022-10-13T11:44:03.598Z,98904.78
2022-10-13T11:46:30.715Z,98896.78
2022-10-13T11:48:57.994Z,98890.75
2022-10-13T11:51:25.995Z,98889.91
2022-10-13T11:53:53.101Z,98884.59
2022-10-13T11:56:20.317Z,98886.97
2022-10-13T11:58:47.526Z,98883.44
2022-10-13T12:01:14.644Z,98879.59
2022-10-13T12:03:41.832Z,98871.88
2022-10-13T12:06:09.482Z,98872.41
2022-10-13T12:08:36.643Z,98872.47
2022-10-13T12:11:07.450Z,98866.13
2022-10-13T12:13:34.534Z,98857.38
2022-10-13T12:16:03.192Z,98854.56
2022-10-13T12:18:33.781Z,98851.25
2022-10-13T12:21:00.862Z,98856.00
2022-10-13T12:23:28.030Z,98848.31
2022-10-13T12:25:58.726Z,98836.25
2022-10-13T12:28:25.941Z,98841.75
2022-10-13T12:30:53.166Z,98834.19
2022-10-13T12:33:20.308Z,98835.50
2022-10-13T12:35:47.439Z,98835.50
2022-10-13T12:38:14.611Z,98831.94
2022-10-13T12:40:41.731Z,98828.31
2022-10-13T12:43:08.835Z,98831.66
2022-10-13T12:45:35.914Z,98830.81
2022-10-13T12:48:03.001Z,98835.09
2022-10-13T12:50:30.186Z,98834.47
2022-10-13T12:52:57.306Z,98832.69
2022-10-13T12:55:24.384Z,98830.91
2022-10-13T12:57:51.523Z,98829.59
2022-10-13T13:00:18.673Z,98829.47
2022-10-13T13:02:45.804Z,98821.06
2022-10-13T13:05:12.902Z,98821.25
2022-10-13T13:07:39.990Z,98820.56
2022-10-13T13:10:07.051Z,98808.59
2022-10-13T13:12:34.134Z,98816.59
2022-10-13T13:15:01.209Z,98806.19
2022-10-13T13:17:45.817Z,98804.72
2022-10-13T13:20:15.373Z,98807.34
2022-10-13T13:22:42.461Z,98806.81
2022-10-13T13:25:09.542Z,98808.91
2022-10-13T13:27:36.611Z,98801.94
2022-10-13T13:30:03.763Z,98795.78
2022-10-13T13:32:31.098Z,98805.25
2022-10-13T13:34:58.254Z,98803.59
2022-10-13T13:37:25.323Z,98800.16
2022-10-13T13:39:52.407Z,98806.19
2022-10-13T13:42:19.514Z,98808.81
2022-10-13T13:44:46.618Z,98806.09
2022-10-13T13:47:13.770Z,98805.38
2022-10-13T13:49:40.939Z,98807.97
2022-10-13T13:52:08.013Z,98802.78
2022-10-13T13:54:35.363Z,98807.16
2022-10-13T13:57:02.456Z,98798.38
2022-10-13T13:59:29.614Z,98775.91
2022-10-13T14:01:56.728Z,98767.28
2022-10-13T14:04:23.851Z,98775.09
2022-10-13T14:06:50.943Z,98773.44
2022-10-13T14:09:18.014Z,98782.91
2022-10-13T14:11:45.140Z,98788.94
2022-10-13T14:14:12.210Z,98780.38
2022-10-13T14:16:41.427Z,98782.06
2022-10-13T14:19:08.706Z,98780.38
2022-10-13T14:21:36.428Z,98777.91
2022-10-13T14:24:03.510Z,98767.63
2022-10-13T14:26:30.594Z,98769.06
2022-10-13T14:28:58.401Z,98768.44
2022-10-13T14:31:25.765Z,98761.47
2022-10-13T14:33:54.377Z,98765.50
2022-10-13T14:36:21.683Z,98767.06
2022-10-13T14:38:48.905Z,98762.78
2022-10-13T14:41:17.118Z,98769.56
2022-10-13T14:43:44.191Z,98771.13
2022-10-13T14:46:11.335Z,98768.59
2022-10-13T14:48:38.439Z,98763.88
2022-10-13T14:51:05.695Z,98776.03
2022-10-13T14:53:32.776Z,98774.47
2022-10-13T14:55:59.859Z,98770.09
2022-10-13T14:58:26.944Z,98771.06
2022-10-13T15:00:55.531Z,98764.06
2022-10-13T15:03:22.798Z,98765.03
2022-10-13T15:05:50.139Z,98763.34
2022-10-13T15:08:17.357Z,98759.81
2022-10-13T15:10:45.205Z,98751.91
2022-10-13T15:13:12.599Z,98751.78
2022-10-13T15:15:39.663Z,98752.50
2022-10-13T15:18:06.736Z,98751.56
2022-10-13T15:20:33.891Z,98759.28
2022-10-13T15:23:00.983Z,98752.38
2022-10-13T15:25:28.161Z,98755.72
2022-10-13T15:27:55.300Z,98754.88
2022-10-13T15:30:22.422Z,98751.47
2022-10-13T15:32:50.496Z,98747.19
2022-10-13T15:35:17.587Z,98754.88
2022-10-13T15:37:44.719Z,98755.59
2022-10-13T15:40:11.810Z,98747.78
2022-10-13T15:42:38.903Z,98753.94
2022-10-13T15:45:10.818Z,98751.34
2022-10-13T15:47:38.816Z,98744.56
2022-10-13T15:50:05.970Z,98746.34
2022-10-13T15:52:35.088Z,98749.78
2022-10-13T15:55:02.330Z,98744.56
2022-10-13T15:57:29.420Z,98738.53
2022-10-13T15:59:56.526Z,98743.88
2022-10-13T16:02:24.208Z,98748.25
2022-10-13T16:04:51.294Z,98742.31
2022-10-13T16:07:18.505Z,98732.94
2022-10-13T16:09:45.579Z,98731.06
2022-10-13T16:12:12.673Z,98735.53
2022-10-13T16:14:39.735Z,98732.03
2022-10-13T16:17:06.836Z,98723.50
2022-10-13T16:19:33.914Z,98733.81
2022-10-13T16:22:01.065Z,98738.16
2022-10-13T16:24:28.162Z,98732.94
2022-10-13T16:26:55.366Z,98735.66
2022-10-13T16:29:22.464Z,98728.69
2022-10-13T16:31:49.681Z,98733.91
2022-10-13T16:34:16.860Z,98735.66
2022-10-13T16:36:43.966Z,98735.66
2022-10-13T16:39:11.054Z,98727.88
2022-10-13T16:41:38.851Z,98732.25
2022-10-13T16:44:05.942Z,98732.25
2022-10-13T16:46:36.111Z,98732.25
2022-10-13T16:49:03.311Z,98741.81
2022-10-13T16:51:30.395Z,98746.91
2022-10-13T16:54:01.314Z,98739.22
2022-10-13T16:56:31.153Z,98734.69
2022-10-13T16:58:58.264Z,98737.50
2022-10-13T17:01:25.407Z,98742.72
2022-10-13T17:03:52.538Z,98735.94
2022-10-13T17:06:19.903Z,98738.66
2022-10-13T17:08:47.006Z,98737.00
2022-10-13T17:11:14.219Z,98735.25
2022-10-13T17:13:41.304Z,98738.66
2022-10-13T17:16:08.372Z,98740.31
2022-10-13T17:18:35.442Z,98736.06
2022-10-13T17:21:02.796Z,98723.06
2022-10-13T17:23:29.906Z,98719.63
2022-10-13T17:25:57.040Z,98723.16
2022-10-13T17:28:24.239Z,98717.84
2022-10-13T17:30:51.402Z,98715.25
2022-10-13T17:33:18.476Z,98712.66
2022-10-13T17:35:45.551Z,98718.69
2022-10-13T17:38:12.702Z,98721.72
2022-10-13T17:40:39.870Z,98737.84
2022-10-13T17:43:06.977Z,98735.00
2022-10-13T17:45:34.043Z,98734.91
2022-10-13T17:48:01.442Z,98729.69
2022-10-13T17:50:29.675Z,98728.75
2022-10-13T17:52:56.765Z,98729.69
2022-10-13T17:55:23.874Z,98718.47
2022-10-13T17:57:51.043Z,98715.75
2022-10-13T18:00:18.124Z,98713.75
2022-10-13T18:02:45.262Z,98709.59
2022-10-13T18:05:12.347Z,98710.44
2022-10-13T18:07:39.458Z,98709.38
2022-10-13T18:10:06.577Z,98716.25
2022-10-13T18:12:33.686Z,98718.00
2022-10-13T18:15:00.776Z,98713.75
2022-10-13T18:17:27.854Z,98716.34
2022-10-13T18:19:55.142Z,98718.94
2022-10-13T18:22:22.288Z,98716.34
2022-10-13T18:24:52.232Z,98715.31
2022-10-13T18:27:23.431Z,98712.69
2022-10-13T18:29:50.797Z,98715.31
2022-10-13T18:32:17.873Z,98726.66
2022-10-13T18:34:44.944Z,98728.72
2022-10-13T18:37:12.043Z,98726.94
2022-10-13T18:39:39.144Z,98727.16
2022-10-13T18:42:06.207Z,98725.50
2022-10-13T18:44:33.365Z,98723.81
2022-10-13T18:47:00.492Z,98719.22
2022-10-13T18:49:33.536Z,98728.25
2022-10-13T18:52:00.626Z,98723.03
2022-10-13T18:54:27.732Z,98724.81
2022-10-13T18:56:54.876Z,98723.03
2022-10-13T18:59:22.327Z,98716.00
2022-10-13T19:01:55.445Z,98714.22
2022-10-13T19:04:22.646Z,98710.66
2022-10-13T19:06:49.927Z,98702.84
2022-10-13T19:09:17.525Z,98702.84
2022-10-13T19:11:44.744Z,98703.91
2022-10-13T19:14:11.916Z,98700.44
2022-10-13T19:16:39.033Z,98700.78
2022-10-13T19:19:08.052Z,98699.34
2022-10-13T19:21:35.232Z,98695.44
2022-10-13T19:24:02.427Z,98694.47
2022-10-13T19:26:29.829Z,98689.97
2022-10-13T19:28:56.946Z,98694.25
2022-10-13T19:31:24.091Z,98687.38
2022-10-13T19:33:52.517Z,98683.00
2022-10-13T19:36:19.621Z,98684.78
2022-10-13T19:38:46.910Z,98687.63
2022-10-13T19:41:14.031Z,98686.78
2022-10-13T19:43:41.149Z,98689.63
2022-10-13T19:46:08.268Z,98686.91
2022-10-13T19:48:35.361Z,98685.94
2022-10-13T19:51:02.503Z,98677.22
2022-10-13T19:53:29.644Z,98679.09
2022-10-13T19:55:56.712Z,98676.59
2022-10-13T19:58:24.203Z,98674.94
2022-10-13T20:00:51.470Z,98677.53
2022-10-13T20:03:18.596Z,98676.69
2022-10-13T20:05:45.707Z,98669.03
2022-10-13T20:08:12.811Z,98677.66
2022-10-13T20:10:39.887Z,98679.44
2022-10-13T20:13:07.020Z,98677.66
2022-10-13T20:15:34.122Z,98674.31
2022-10-13T20:18:01.190Z,98677.06
2022-10-13T20:20:28.286Z,98679.66
2022-10-13T20:22:55.543Z,98681.31
2022-10-13T20:25:22.684Z,98670.19
2022-10-13T20:27:49.756Z,98677.19
2022-10-13T20:30:16.877Z,98677.28
2022-10-13T20:32:43.946Z,98686.97
2022-10-13T20:35:11.074Z,98681.25
2022-10-13T20:37:38.999Z,98677.00
2022-10-13T20:41:59.437Z,98683.25
2022-10-13T20:44:26.640Z,98685.03
2022-10-13T20:46:53.755Z,98679.00
2022-10-13T20:49:20.902Z,98683.25
2022-10-13T20:51:48.011Z,98687.63
2022-10-13T20:54:15.115Z,98690.13
2022-10-13T20:56:42.211Z,98691.78
2022-10-13T20:59:09.299Z,98687.41
2022-10-13T21:01:37.042Z,98699.59
2022-10-13T21:04:04.309Z,98688.22
2022-10-13T21:06:31.394Z,98696.16
2022-10-13T21:08:58.550Z,98690.97
2022-10-13T21:11:25.672Z,98690.97
2022-10-13T21:13:52.756Z,98693.56
2022-10-13T21:16:19.826Z,98698.16
2022-10-13T21:18:48.188Z,98699.81
2022-10-13T21:21:15.315Z,98694.59
2022-10-13T21:23:42.409Z,98704.19
2022-10-13T21:26:09.475Z,98705.94
2022-10-13T21:28:36.673Z,98708.44
2022-10-13T21:31:03.815Z,98707.59
2022-10-13T21:33:33.401Z,98704.19
2022-10-13T21:36:02.590Z,98699.94
2022-10-13T21:38:29.794Z,98698.25
2022-10-13T21:40:56.883Z,98685.34
2022-10-13T21:43:23.968Z,98695.75
2022-10-13T21:45:51.036Z,98695.63
2022-10-13T21:48:18.182Z,98699.19
2022-10-13T21:50:45.273Z,98699.19
2022-10-13T21:53:12.339Z,98701.91
2022-10-13T21:55:39.454Z,98701.09
2022-10-13T21:58:06.524Z,98690.69
2022-10-13T22:00:33.653Z,98700.13
2022-10-13T22:03:00.831Z,98695.03
2022-10-13T22:05:27.903Z,98693.38
2022-10-13T22:07:55.014Z,98697.75
2022-10-13T22:10:22.103Z,98698.56
2022-10-13T22:12:49.183Z,98702.00
2022-10-13T22:15:16.289Z,98706.38
2022-10-13T22:17:43.371Z,98707.34
2022-10-13T22:20:10.464Z,98704.72
2022-10-13T22:22:38.152Z,98714.31
2022-10-13T22:25:05.312Z,98716.91
2022-10-13T22:27:32.390Z,98718.69
2022-10-13T22:29:59.500Z,98722.13
2022-10-13T22:32:26.581Z,98717.72
2022-10-13T22:34:53.652Z,98715.34
2022-10-13T22:37:20.966Z,98716.16
2022-10-13T22:39:48.398Z,98717.94
2022-10-13T22:42:16.321Z,98721.38
2022-10-13T22:44:43.426Z,98715.34
2022-10-13T22:47:10.564Z,98722.31
2022-10-13T22:49:37.638Z,98707.66
2022-10-13T22:52:04.706Z,98712.88
2022-10-13T22:54:31.786Z,98714.63
2022-10-13T22:56:58.863Z,98720.66
2022-10-13T22:59:26.056Z,98713.78
2022-10-13T23:01:53.125Z,98705.16
2022-10-13T23:04:20.207Z,98707.75
2022-10-13T23:06:47.288Z,98705.16
2022-10-13T23:09:14.632Z,98702.56
2022-10-13T23:11:41.747Z,98701.72
2022-10-13T23:14:08.875Z,98702.69
2022-10-13T23:16:36.006Z,98696.66
2022-10-13T23:19:03.675Z,98691.44
2022-10-13T23:21:30.797Z,98695.81
2022-10-13T23:23:57.889Z,98691.53
2022-10-13T23:26:25.119Z,98695.91
2022-10-13T23:28:52.277Z,98697.56
2022-10-13T23:31:19.494Z,98699.25
2022-10-13T23:33:46.719Z,98703.63
2022-10-13T23:36:13.866Z,98703.72
2022-10-13T23:38:40.937Z,98700.28
2022-10-13T23:41:08.053Z,98706.31
2022-10-13T23:43:35.140Z,98700.28
2022-10-13T23:46:02.251Z,98700.28
2022-10-13T23:48:29.416Z,98700.41
2022-10-13T23:50:56.509Z,98701.25
2022-10-13T23:53:23.582Z,98712.47
2022-10-13T23:55:50.665Z,98715.06
2022-10-13T23:58:17.778Z,98706.44
